createdAt,value
2018-10-07T00:01:05.700Z,8.70
2018-10-07T00:03:33.046Z,9.43
2018-10-07T00:06:00.390Z,8.80
2018-10-07T00:08:27.820Z,9.47
2018-10-07T00:10:55.159Z,9.63
2018-10-07T00:13:22.515Z,9.17
2018-10-07T00:15:49.825Z,9.40
2018-10-07T00:18:17.189Z,9.37
2018-10-07T00:20:44.530Z,8.60
2018-10-07T00:23:11.911Z,7.80
2018-10-07T00:25:39.261Z,8.97
2018-10-07T00:28:06.622Z,8.63
2018-10-07T00:30:34.185Z,10.13
2018-10-07T00:33:01.462Z,10.60
2018-10-07T00:35:28.838Z,8.27
2018-10-07T00:37:56.198Z,8.80
2018-10-07T00:40:23.570Z,9.03
2018-10-07T00:42:50.916Z,11.73
2018-10-07T00:45:18.264Z,8.70
2018-10-07T00:47:45.635Z,9.40
2018-10-07T00:50:13.081Z,8.40
2018-10-07T00:52:40.470Z,9.07
2018-10-07T00:55:07.773Z,8.00
2018-10-07T00:57:35.083Z,8.77
2018-10-07T01:00:02.397Z,8.37
2018-10-07T01:02:29.734Z,9.70
2018-10-07T01:04:57.021Z,8.27
2018-10-07T01:07:24.457Z,9.23
2018-10-07T01:09:51.781Z,8.20
2018-10-07T01:12:19.081Z,7.57
2018-10-07T01:14:46.440Z,9.20
2018-10-07T01:17:13.816Z,7.90
2018-10-07T01:19:41.213Z,8.33
2018-10-07T01:22:08.585Z,7.53
2018-10-07T01:24:35.853Z,11.73
2018-10-07T01:27:03.249Z,9.87
2018-10-07T01:29:30.629Z,7.60
2018-10-07T01:31:57.950Z,7.60
2018-10-07T01:34:25.318Z,9.37
2018-10-07T01:36:52.681Z,8.30
2018-10-07T01:39:20.030Z,8.80
2018-10-07T01:41:47.286Z,7.63
2018-10-07T01:44:14.614Z,8.23
2018-10-07T01:46:42.027Z,10.83
2018-10-07T01:49:09.339Z,11.57
2018-10-07T01:51:36.708Z,8.53
2018-10-07T01:54:04.053Z,10.20
2018-10-07T01:56:31.459Z,15.70
2018-10-07T01:58:58.756Z,9.80
2018-10-07T02:01:26.090Z,10.50
2018-10-07T02:03:53.400Z,10.27
2018-10-07T02:06:20.709Z,11.13
2018-10-07T02:08:48.038Z,11.70
2018-10-07T02:11:15.313Z,10.67
2018-10-07T02:13:42.586Z,12.00
2018-10-07T02:16:09.834Z,8.47
2018-10-07T02:18:37.188Z,9.67
2018-10-07T02:21:04.525Z,9.27
2018-10-07T02:23:31.849Z,9.23
2018-10-07T02:25:59.190Z,9.67
2018-10-07T02:28:26.487Z,7.60
2018-10-07T02:30:53.821Z,10.20
2018-10-07T02:33:21.189Z,10.80
2018-10-07T02:35:48.558Z,8.90
2018-10-07T02:38:15.944Z,10.00
2018-10-07T02:40:43.326Z,8.40
2018-10-07T02:43:11.190Z,8.17
2018-10-07T02:45:38.927Z,8.47
2018-10-07T02:48:06.246Z,10.13
2018-10-07T02:50:33.580Z,9.80
2018-10-07T02:53:01.166Z,8.70
2018-10-07T02:55:32.146Z,9.30
2018-10-07T02:58:00.409Z,8.40
2018-10-07T03:00:27.789Z,9.10
2018-10-07T03:02:55.145Z,8.40
2018-10-07T03:05:22.517Z,9.67
2018-10-07T03:07:49.808Z,7.90
2018-10-07T03:10:17.162Z,9.37
2018-10-07T03:12:44.503Z,10.13
2018-10-07T03:15:12.193Z,8.83
2018-10-07T03:17:39.510Z,8.47
2018-10-07T03:20:07.289Z,12.33
2018-10-07T03:22:34.639Z,8.97
2018-10-07T03:25:02.002Z,9.07
2018-10-07T03:27:29.353Z,8.40
2018-10-07T03:29:56.716Z,9.47
2018-10-07T03:32:24.119Z,8.97
2018-10-07T03:34:51.477Z,8.57
2018-10-07T03:37:18.842Z,8.20
2018-10-07T03:39:46.232Z,13.90
2018-10-07T03:42:15.239Z,8.97
2018-10-07T03:44:42.550Z,8.50
2018-10-07T03:47:10.003Z,9.20
2018-10-07T03:49:37.603Z,9.63
2018-10-07T03:52:04.992Z,8.37
2018-10-07T03:54:32.421Z,8.27
2018-10-07T03:57:00.490Z,7.40
2018-10-07T03:59:27.837Z,13.40
2018-10-07T04:01:56.163Z,9.27
2018-10-07T04:04:23.439Z,8.37
2018-10-07T04:06:50.830Z,8.30
2018-10-07T04:09:18.145Z,8.77
2018-10-07T04:11:45.504Z,10.47
2018-10-07T04:14:13.408Z,10.23
2018-10-07T04:16:40.841Z,10.63
2018-10-07T04:19:09.202Z,10.97
2018-10-07T04:21:36.531Z,9.60
2018-10-07T04:24:04.260Z,10.07
2018-10-07T04:26:31.995Z,11.50
2018-10-07T04:28:59.625Z,10.53
2018-10-07T04:31:27.039Z,10.23
2018-10-07T04:33:54.433Z,11.40
2018-10-07T04:36:21.839Z,10.00
2018-10-07T04:38:49.220Z,8.13
2018-10-07T04:41:16.640Z,9.77
2018-10-07T04:43:43.954Z,10.43
2018-10-07T04:46:11.426Z,11.03
2018-10-07T04:48:38.659Z,11.90
2018-10-07T04:51:06.199Z,11.40
2018-10-07T04:53:33.509Z,13.07
2018-10-07T04:56:00.865Z,12.20
2018-10-07T04:58:28.197Z,12.07
2018-10-07T05:00:55.606Z,12.60
2018-10-07T05:03:22.929Z,11.63
2018-10-07T05:05:50.411Z,10.87
2018-10-07T05:08:17.835Z,10.77
2018-10-07T05:11:03.758Z,12.00
2018-10-07T05:13:44.251Z,10.50
2018-10-07T05:16:14.365Z,10.90
2018-10-07T05:18:42.573Z,13.60
2018-10-07T05:21:10.006Z,15.40
2018-10-07T05:23:37.315Z,11.87
2018-10-07T05:26:04.646Z,12.70
2018-10-07T05:28:31.962Z,13.83
2018-10-07T05:30:59.257Z,11.67
2018-10-07T05:33:26.582Z,11.63
2018-10-07T05:35:53.913Z,10.27
2018-10-07T05:38:21.199Z,11.40
2018-10-07T05:40:48.551Z,10.40
2018-10-07T05:43:16.109Z,14.60
2018-10-07T05:45:43.473Z,11.80
2018-10-07T05:48:10.805Z,10.67
2018-10-07T05:50:38.121Z,10.60
2018-10-07T05:53:05.557Z,10.00
2018-10-07T05:55:32.938Z,9.73
2018-10-07T05:58:03.782Z,12.70
2018-10-07T06:00:32.331Z,11.60
2018-10-07T06:03:03.426Z,12.50
2018-10-07T06:05:30.914Z,15.90
2018-10-07T06:07:58.195Z,10.20
2018-10-07T06:10:25.527Z,11.30
2018-10-07T06:12:52.898Z,17.53
2018-10-07T06:15:33.318Z,14.27
2018-10-07T06:18:00.606Z,11.90
2018-10-07T06:20:28.689Z,13.17
2018-10-07T06:22:56.584Z,14.40
2018-10-07T06:25:24.074Z,12.47
2018-10-07T06:27:51.540Z,13.00
2018-10-07T06:30:18.905Z,12.00
2018-10-07T06:32:46.221Z,12.47
2018-10-07T06:35:13.582Z,12.57
2018-10-07T06:37:40.867Z,12.87
2018-10-07T06:40:08.229Z,12.83
2018-10-07T06:42:35.612Z,13.27
2018-10-07T06:45:02.941Z,14.10
2018-10-07T06:47:30.287Z,12.60
2018-10-07T06:49:57.627Z,12.13
2018-10-07T06:52:24.961Z,12.80
2018-10-07T06:54:52.320Z,12.20
2018-10-07T06:57:19.760Z,12.93
2018-10-07T06:59:47.064Z,12.07
2018-10-07T07:02:14.621Z,12.43
2018-10-07T07:04:41.969Z,12.50
2018-10-07T07:07:09.269Z,13.57
2018-10-07T07:09:36.608Z,15.53
2018-10-07T07:12:03.923Z,13.87
2018-10-07T07:14:31.357Z,13.63
2018-10-07T07:16:58.651Z,14.03
2018-10-07T07:19:26.014Z,15.00
2018-10-07T07:21:53.334Z,14.60
2018-10-07T07:24:20.653Z,10.50
2018-10-07T07:26:48.060Z,12.50
2018-10-07T07:29:15.462Z,12.33
2018-10-07T07:31:42.817Z,13.47
2018-10-07T07:34:10.090Z,15.03
2018-10-07T07:36:37.414Z,17.87
2018-10-07T07:39:05.630Z,13.60
2018-10-07T07:41:32.893Z,14.03
2018-10-07T07:44:00.170Z,15.37
2018-10-07T07:46:27.480Z,13.87
2018-10-07T07:48:54.811Z,14.53
2018-10-07T07:51:22.228Z,14.23
2018-10-07T07:53:49.625Z,13.83
2018-10-07T07:56:17.426Z,14.13
2018-10-07T07:58:44.763Z,13.60
2018-10-07T08:01:12.099Z,16.70
2018-10-07T08:03:39.386Z,14.50
2018-10-07T08:06:06.743Z,14.47
2018-10-07T08:08:34.137Z,15.43
2018-10-07T08:11:01.552Z,14.47
2018-10-07T08:13:28.899Z,15.10
2018-10-07T08:15:56.158Z,15.43
2018-10-07T08:18:23.513Z,15.00
2018-10-07T08:20:50.841Z,16.47
2018-10-07T08:23:19.923Z,16.37
2018-10-07T08:25:47.249Z,16.93
2018-10-07T08:28:14.607Z,17.20
2018-10-07T08:30:41.961Z,14.37
2018-10-07T08:33:09.313Z,16.03
2018-10-07T08:35:36.662Z,15.60
2018-10-07T08:38:03.990Z,16.77
2018-10-07T08:40:31.322Z,17.67
2018-10-07T08:42:58.742Z,14.87
2018-10-07T08:45:26.106Z,15.67
2018-10-07T08:47:53.514Z,15.47
2018-10-07T08:50:20.907Z,20.33
2018-10-07T08:52:48.341Z,17.90
2018-10-07T08:55:15.658Z,17.20
2018-10-07T08:57:42.995Z,17.97
2018-10-07T09:00:10.737Z,16.93
2018-10-07T09:02:38.179Z,17.23
2018-10-07T09:05:06.381Z,16.00
2018-10-07T09:07:33.692Z,16.97
2018-10-07T09:10:01.022Z,19.03
2018-10-07T09:12:28.379Z,17.87
2018-10-07T09:14:56.275Z,17.17
2018-10-07T09:17:25.233Z,17.37
2018-10-07T09:19:52.639Z,16.83
2018-10-07T09:22:20.030Z,15.27
2018-10-07T09:24:47.370Z,15.80
2018-10-07T09:27:14.721Z,16.60
2018-10-07T09:29:42.135Z,15.20
2018-10-07T09:32:09.505Z,16.50
2018-10-07T09:34:36.910Z,14.27
2018-10-07T09:37:04.765Z,13.40
2018-10-07T09:39:32.199Z,15.60
2018-10-07T09:41:59.470Z,15.50
2018-10-07T09:44:26.798Z,15.00
2018-10-07T09:46:54.499Z,13.53
2018-10-07T09:49:21.962Z,11.33
2018-10-07T09:51:49.289Z,12.03
2018-10-07T09:54:16.644Z,13.57
2018-10-07T09:56:44.029Z,12.63
2018-10-07T09:59:11.540Z,11.30
2018-10-07T10:01:39.029Z,12.37
2018-10-07T10:04:06.676Z,11.60
2018-10-07T10:06:34.070Z,11.23
2018-10-07T10:09:01.413Z,11.87
2018-10-07T10:11:30.522Z,15.20
2018-10-07T10:13:57.865Z,10.50
2018-10-07T10:16:49.722Z,11.20
2018-10-07T10:19:21.160Z,11.80
2018-10-07T10:21:51.701Z,14.50
2018-10-07T10:26:39.344Z,11.93
2018-10-07T10:29:17.966Z,12.80
2018-10-07T10:31:52.498Z,11.90
2018-10-07T10:35:01.913Z,12.17
2018-10-07T10:40:00.176Z,14.93
2018-10-07T10:42:48.754Z,12.67
2018-10-07T10:45:24.765Z,13.33
2018-10-07T10:47:55.375Z,10.60
2018-10-07T10:50:31.980Z,11.40
2018-10-07T10:53:07.632Z,10.40
2018-10-07T10:56:18.660Z,10.83
2018-10-07T10:59:06.434Z,10.23
2018-10-07T11:03:16.341Z,11.97
2018-10-07T11:05:53.923Z,10.00
2018-10-07T11:08:35.122Z,11.47
2018-10-07T11:11:07.539Z,9.57
2018-10-07T11:13:38.137Z,9.70
2018-10-07T11:16:26.271Z,10.47
2018-10-07T11:18:57.872Z,9.77
2018-10-07T11:23:40.402Z,10.33
2018-10-07T11:27:19.673Z,9.50
2018-10-07T11:32:02.558Z,9.10
2018-10-07T11:34:52.834Z,8.37
2018-10-07T11:38:08.659Z,8.37
2018-10-07T11:40:43.733Z,8.77
2018-10-07T11:43:35.094Z,9.17
2018-10-07T11:46:15.246Z,8.93
2018-10-07T11:48:49.037Z,9.27
2018-10-07T11:53:27.863Z,8.33
2018-10-07T11:55:55.274Z,8.10
2018-10-07T11:58:22.666Z,9.03
2018-10-07T12:00:49.964Z,11.93
2018-10-07T12:03:17.470Z,9.40
2018-10-07T12:05:44.832Z,8.53
2018-10-07T12:08:12.254Z,8.90
2018-10-07T12:10:40.221Z,8.17
2018-10-07T12:13:07.757Z,9.00
2018-10-07T12:15:35.178Z,8.07
2018-10-07T12:18:03.751Z,11.57
2018-10-07T12:20:31.251Z,10.73
2018-10-07T12:22:58.743Z,9.20
2018-10-07T12:25:26.243Z,8.17
2018-10-07T12:27:53.667Z,7.40
2018-10-07T12:30:21.192Z,6.97
2018-10-07T12:32:48.785Z,8.53
2018-10-07T12:35:16.256Z,7.60
2018-10-07T12:37:43.760Z,6.37
2018-10-07T12:40:11.290Z,8.47
2018-10-07T12:42:38.798Z,10.43
2018-10-07T12:45:06.350Z,6.97
2018-10-07T12:47:33.884Z,6.77
2018-10-07T12:50:01.666Z,7.13
2018-10-07T12:52:29.194Z,6.00
2018-10-07T12:54:56.980Z,6.67
2018-10-07T12:57:24.494Z,6.23
2018-10-07T12:59:51.938Z,7.23
2018-10-07T13:02:21.264Z,7.10
2018-10-07T13:04:49.136Z,7.37
2018-10-07T13:07:16.745Z,8.30
2018-10-07T13:09:44.330Z,6.80
2018-10-07T13:12:11.953Z,7.13
2018-10-07T13:14:39.444Z,7.10
2018-10-07T13:17:07.554Z,11.83
2018-10-07T13:19:35.159Z,11.57
2018-10-07T13:22:02.826Z,11.80
2018-10-07T13:24:30.438Z,12.83
2018-10-07T13:26:58.157Z,11.80
2018-10-07T13:29:25.928Z,13.40
2018-10-07T13:31:53.618Z,13.20
2018-10-07T13:34:21.099Z,13.63
2018-10-07T13:36:48.640Z,15.60
2018-10-07T13:39:16.198Z,15.43
2018-10-07T13:41:43.927Z,16.17
2018-10-07T13:44:11.477Z,16.37
2018-10-07T13:46:39.007Z,17.37
2018-10-07T13:49:06.684Z,16.73
2018-10-07T13:51:34.279Z,15.93
2018-10-07T13:54:01.831Z,20.03
2018-10-07T13:56:29.559Z,18.53
2018-10-07T13:58:57.222Z,21.17
2018-10-07T14:01:25.023Z,19.80
2018-10-07T14:03:52.672Z,20.03
2018-10-07T14:06:20.356Z,21.13
2018-10-07T14:08:47.938Z,20.07
2018-10-07T14:11:15.647Z,21.93
2018-10-07T14:13:43.057Z,22.03
2018-10-07T14:16:10.471Z,20.93
2018-10-07T14:18:37.858Z,22.30
2018-10-07T14:21:05.229Z,27.87
2018-10-07T14:23:32.628Z,30.73
2018-10-07T14:26:00.020Z,27.17
2018-10-07T14:28:27.404Z,29.57
2018-10-07T14:30:54.740Z,33.60
2018-10-07T14:33:22.297Z,33.50
2018-10-07T14:35:49.621Z,34.63
2018-10-07T14:38:17.813Z,33.23
2018-10-07T14:40:45.415Z,34.07
2018-10-07T14:43:13.440Z,32.60
2018-10-07T14:45:41.044Z,33.53
2018-10-07T14:48:08.420Z,29.57
2018-10-07T14:50:35.813Z,32.73
2018-10-07T14:53:03.166Z,30.60
2018-10-07T14:55:29.939Z,32.50
2018-10-07T14:57:57.342Z,32.63
2018-10-07T15:00:24.739Z,30.37
2018-10-07T15:02:52.764Z,30.90
2018-10-07T15:05:20.150Z,29.23
2018-10-07T15:07:47.507Z,33.27
2018-10-07T15:10:14.866Z,30.50
2018-10-07T15:12:42.667Z,32.73
2018-10-07T15:15:10.102Z,34.03
2018-10-07T15:17:37.586Z,31.33
2018-10-07T15:20:05.788Z,33.13
2018-10-07T15:22:33.149Z,32.90
2018-10-07T15:25:00.519Z,38.23
2018-10-07T15:27:27.885Z,33.70
2018-10-07T15:29:55.394Z,34.87
2018-10-07T15:32:22.686Z,30.50
2018-10-07T15:34:50.053Z,38.53
2018-10-07T15:37:17.469Z,35.40
2018-10-07T15:39:44.901Z,33.83
2018-10-07T15:42:12.281Z,34.33
2018-10-07T15:44:39.910Z,29.77
2018-10-07T15:47:07.296Z,36.30
2018-10-07T15:49:34.646Z,34.13
2018-10-07T15:52:02.082Z,35.13
2018-10-07T15:54:29.475Z,32.80
2018-10-07T15:56:56.878Z,33.07
2018-10-07T15:59:24.273Z,33.30
2018-10-07T16:01:51.617Z,33.03
2018-10-07T16:04:19.393Z,35.90
2018-10-07T16:06:47.061Z,36.20
2018-10-07T16:09:14.432Z,34.77
2018-10-07T16:11:42.388Z,31.73
2018-10-07T16:14:09.773Z,32.77
2018-10-07T16:16:37.128Z,33.53
2018-10-07T16:19:04.540Z,42.23
2018-10-07T16:21:32.112Z,36.43
2018-10-07T16:23:59.567Z,39.47
2018-10-07T16:26:27.084Z,34.17
2018-10-07T16:28:54.356Z,34.83
2018-10-07T16:31:22.621Z,33.80
2018-10-07T16:33:49.953Z,34.03
2018-10-07T16:36:17.534Z,36.63
2018-10-07T16:38:45.038Z,29.07
2018-10-07T16:41:13.221Z,35.73
2018-10-07T16:43:40.558Z,35.10
2018-10-07T16:46:07.938Z,33.70
2018-10-07T16:48:35.399Z,27.10
2018-10-07T16:51:02.939Z,28.83
2018-10-07T16:53:30.317Z,39.03
2018-10-07T16:55:57.773Z,31.37
2018-10-07T16:58:25.167Z,32.70
2018-10-07T17:00:52.604Z,32.80
2018-10-07T17:03:19.952Z,32.07
2018-10-07T17:05:47.451Z,32.80
2018-10-07T17:08:14.843Z,30.87
2018-10-07T17:10:42.540Z,31.27
2018-10-07T17:13:10.217Z,27.17
2018-10-07T17:15:37.497Z,27.50
2018-10-07T17:18:04.842Z,29.40
2018-10-07T17:20:32.201Z,30.10
2018-10-07T17:23:00.963Z,29.93
2018-10-07T17:25:29.118Z,29.83
2018-10-07T17:27:56.803Z,26.63
2018-10-07T17:30:24.581Z,27.77
2018-10-07T17:32:52.385Z,31.37
2018-10-07T17:35:20.129Z,32.33
2018-10-07T17:37:48.660Z,31.70
2018-10-07T17:40:16.334Z,31.60
2018-10-07T17:42:44.048Z,29.07
2018-10-07T17:45:11.850Z,29.80
2018-10-07T17:47:39.834Z,30.07
2018-10-07T17:50:07.959Z,27.00
2018-10-07T17:52:35.789Z,25.70
2018-10-07T17:55:04.277Z,34.80
2018-10-07T17:57:31.958Z,32.20
2018-10-07T17:59:59.602Z,33.10
2018-10-07T18:02:27.357Z,30.77
2018-10-07T18:04:54.988Z,38.23
2018-10-07T18:07:22.822Z,38.30
2018-10-07T18:09:50.550Z,34.47
2018-10-07T18:12:18.355Z,37.00
2018-10-07T18:14:46.214Z,34.77
2018-10-07T18:17:13.953Z,32.80
2018-10-07T18:19:41.744Z,37.00
2018-10-07T18:22:09.479Z,27.60
2018-10-07T18:24:37.147Z,33.67
2018-10-07T18:27:04.706Z,33.77
2018-10-07T18:29:32.673Z,31.20
2018-10-07T18:32:00.319Z,34.20
2018-10-07T18:34:28.109Z,29.97
2018-10-07T18:36:55.749Z,26.17
2018-10-07T18:39:23.449Z,26.47
2018-10-07T18:41:51.123Z,25.40
2018-10-07T18:44:18.850Z,26.87
2018-10-07T18:46:46.527Z,27.53
2018-10-07T18:49:14.222Z,25.97
2018-10-07T18:51:41.907Z,22.90
2018-10-07T18:54:09.569Z,20.73
2018-10-07T18:56:37.145Z,20.80
2018-10-07T18:59:04.815Z,19.10
2018-10-07T19:01:32.439Z,20.50
2018-10-07T19:04:00.019Z,16.13
2018-10-07T19:06:27.529Z,20.50
2018-10-07T19:08:55.229Z,17.40
2018-10-07T19:11:23.011Z,23.73
2018-10-07T19:13:50.586Z,23.80
2018-10-07T19:16:18.136Z,18.47
2018-10-07T19:18:45.826Z,17.00
2018-10-07T19:21:13.434Z,15.77
2018-10-07T19:23:41.006Z,19.20
2018-10-07T19:26:08.638Z,18.10
2018-10-07T19:28:36.198Z,17.17
2018-10-07T19:31:03.714Z,14.50
2018-10-07T19:33:31.297Z,15.40
2018-10-07T19:36:00.144Z,19.00
2018-10-07T19:38:29.884Z,17.10
2018-10-07T19:40:57.915Z,21.73
2018-10-07T19:43:25.518Z,16.70
2018-10-07T19:45:53.104Z,18.90
2018-10-07T19:48:20.642Z,17.77
2018-10-07T19:50:48.514Z,14.97
2018-10-07T19:53:16.099Z,14.67
2018-10-07T19:55:43.761Z,15.37
2018-10-07T19:58:12.144Z,18.00
2018-10-07T20:00:39.835Z,14.40
2018-10-07T20:03:07.469Z,18.47
2018-10-07T20:05:34.929Z,17.40
2018-10-07T20:08:02.679Z,16.37
2018-10-07T20:10:30.146Z,14.83
2018-10-07T20:12:57.707Z,13.53
2018-10-07T20:15:25.347Z,11.57
2018-10-07T20:17:52.962Z,12.03
2018-10-07T20:20:20.658Z,12.40
2018-10-07T20:22:48.397Z,12.33
2018-10-07T20:25:16.064Z,11.00
2018-10-07T20:27:43.660Z,11.53
2018-10-07T20:30:11.269Z,12.73
2018-10-07T20:32:38.845Z,12.77
2018-10-07T20:35:06.655Z,13.37
2018-10-07T20:37:34.373Z,16.23
2018-10-07T20:40:02.003Z,10.70
2018-10-07T20:42:29.639Z,11.30
2018-10-07T20:44:57.129Z,11.20
2018-10-07T20:47:24.647Z,10.73
2018-10-07T20:49:52.207Z,10.50
2018-10-07T20:52:19.822Z,10.43
2018-10-07T20:54:47.511Z,11.43
2018-10-07T20:57:15.065Z,12.07
2018-10-07T20:59:42.657Z,11.13
2018-10-07T21:02:10.317Z,12.53
2018-10-07T21:04:37.948Z,20.63
2018-10-07T21:07:05.681Z,15.40
2018-10-07T21:09:33.352Z,13.93
2018-10-07T21:12:01.072Z,12.70
2018-10-07T21:14:28.663Z,14.90
2018-10-07T21:16:56.360Z,15.80
2018-10-07T21:19:23.821Z,12.43
2018-10-07T21:21:51.338Z,12.27
2018-10-07T21:24:19.279Z,12.40
2018-10-07T21:26:46.836Z,13.00
2018-10-07T21:29:14.503Z,14.47
2018-10-07T21:31:45.791Z,12.73
2018-10-07T21:34:13.310Z,12.30
2018-10-07T21:36:42.915Z,11.30
2018-10-07T21:39:11.051Z,13.70
2018-10-07T21:41:38.656Z,12.30
2018-10-07T21:44:06.529Z,15.03
2018-10-07T21:46:34.527Z,15.17
2018-10-07T21:49:01.921Z,13.33
2018-10-07T21:51:29.531Z,13.37
2018-10-07T21:53:57.010Z,16.43
2018-10-07T21:56:24.624Z,13.97
2018-10-07T21:58:52.335Z,14.70
2018-10-07T22:01:19.970Z,18.70
2018-10-07T22:03:47.561Z,18.13
2018-10-07T22:06:15.107Z,20.70
2018-10-07T22:08:42.810Z,14.77
2018-10-07T22:11:10.495Z,17.60
2018-10-07T22:13:38.043Z,16.73
2018-10-07T22:16:05.641Z,15.77
2018-10-07T22:18:33.190Z,14.83
2018-10-07T22:21:00.900Z,12.33
2018-10-07T22:23:28.541Z,14.87
2018-10-07T22:25:56.024Z,15.40
2018-10-07T22:28:23.469Z,15.23
2018-10-07T22:30:52.307Z,15.63
2018-10-07T22:33:19.782Z,14.30
2018-10-07T22:35:47.334Z,15.80
2018-10-07T22:38:14.852Z,17.97
2018-10-07T22:40:42.406Z,16.00
2018-10-07T22:43:09.926Z,16.47
2018-10-07T22:45:37.409Z,15.93
2018-10-07T22:48:04.969Z,16.57
2018-10-07T22:50:32.458Z,15.93
2018-10-07T22:52:59.905Z,15.77
2018-10-07T22:55:27.471Z,15.43
2018-10-07T22:57:54.980Z,16.17
2018-10-07T23:00:22.529Z,14.00
2018-10-07T23:02:50.239Z,13.23
2018-10-07T23:05:17.739Z,14.77
2018-10-07T23:07:45.308Z,15.97
2018-10-07T23:10:12.846Z,12.83
2018-10-07T23:12:40.418Z,12.27
2018-10-07T23:15:07.969Z,12.10
2018-10-07T23:17:35.572Z,11.80
2018-10-07T23:20:03.879Z,12.17
2018-10-07T23:22:31.513Z,9.90
2018-10-07T23:24:59.021Z,12.00
2018-10-07T23:27:26.630Z,11.10
2018-10-07T23:29:53.900Z,10.67
2018-10-07T23:32:21.253Z,11.83
2018-10-07T23:34:48.524Z,12.50
2018-10-07T23:37:15.813Z,11.87
2018-10-07T23:39:43.132Z,11.80
2018-10-07T23:42:10.447Z,16.33
2018-10-07T23:44:37.767Z,17.10
2018-10-07T23:47:05.072Z,11.27
2018-10-07T23:49:32.390Z,11.60
2018-10-07T23:51:59.728Z,13.30
2018-10-07T23:54:26.978Z,12.57
2018-10-07T23:56:54.325Z,14.80
2018-10-07T23:59:21.735Z,10.83
